Pagrindinis puslapis
METAR-TAF:

METAR-TAF

Oro uostai :

Tabatinga, Amazonė, Brazilija

platuma: 03-40S, ilguma: 069-40W, Aukštis: 85 m

Dabartinis oras

Ataskaita buvo paskelbta 4 valandos ir 27 minutes, ne 22:00 UTC
Vėjas 3 kt iš Pietų/Pietryčių
Temperatūra 24°C
Drėgmė 94%
Slėgis 1013 hPa
Matomumas 10 km arba daugiau
Išsisklaidę debesys ne aukštis 800 ft
Išsisklaidę debesys ne aukštis 1900 ft
dulksna

METAR: SBTT 162200Z 15003KT 9999 -DZ SCT008 SCT019 24/23 Q1013

Laikas: 22:27 (02:27 UTC)

Prognozė

Ataskaita buvo paskelbta 5 valandos ir 27 minutes, ne 21:00 UTC
Prognozė galioja nuo 17 metu 00 UTC su 17 metu 24 UTC
Vėjas 5 kt iš Pietų
Matomumas 10 km arba daugiau
Išsisklaidę debesys ne aukštis 1700 ft
Tikimybė 30%
nuo 17 metu 19 UTC su 17 metu 22 UTC
Išsisklaidę debesys ne aukštis 2000 ft
Mažai debesys ne aukštis 3000 ft, Liūtiniai kamuoliniai debesys.
perkūnija

TAF: SBTT 162100Z 1700/1724 18005KT 9999 SCT017 TN25/1713Z TX29/1718Z PROB30 1719/1722 TS SCT020 FEW030CB RMK PHD

Orai ataskaitas ir orų prognozės (METAR, TAF).

turimą stotys yra geltonos ir raudonos taškus žemėlapyje.

Perkelti pele per norėdami pamatyti stoties vardą.

Tada spustelėkite, norėdami matyti oro stebėjimo ir prognozės.

Norėdami pakeisti žemėlapį: spustelėkite ant žalios mygtukų su juodo kryžiaus žemyn,; žalią mygtuką su brūkšneliu, jei norite nutolinti; arba žalių rodyklių gretimoms žemėlapius.


METAR-TAF: